Terminal Aerodrome Forecast
Issued by NWS Raleigh/Durham, NC

Current Version | Previous Version | Text Only | Print | Product List | Glossary On
Versions: 1 2 3 4 5 6 7 8 9 10 11 12 13 14 15 16 17 18 19 20 21 22 23
000 FTUS42 KRAH 221951 AAA TAFFAY TAF AMD KFAY 221951Z 2220/2318 24008KT P6SM VCSH SCT040 BKN250 TEMPO 2310/2312 4SM BR=

USA.gov is the U.S. government's official web portal to all federal, state and local government web resources and services.